createdAt,value
2018-02-22T00:00:52.020Z,76.90
2018-02-22T00:03:20.091Z,76.60
2018-02-22T00:05:48.171Z,76.80
2018-02-22T00:08:16.241Z,76.80
2018-02-22T00:10:44.386Z,76.60
2018-02-22T00:13:12.444Z,76.60
2018-02-22T00:15:40.504Z,76.60
2018-02-22T00:18:08.574Z,77.30
2018-02-22T00:20:36.642Z,77.00
2018-02-22T00:23:04.727Z,77.50
2018-02-22T00:25:32.807Z,77.90
2018-02-22T00:28:01.400Z,78.90
2018-02-22T00:30:30.241Z,80.10
2018-02-22T00:32:58.294Z,80.10
2018-02-22T00:35:26.384Z,79.80
2018-02-22T00:37:54.462Z,79.30
2018-02-22T00:40:22.531Z,79.20
2018-02-22T00:42:51.259Z,79.50
2018-02-22T00:45:19.318Z,80.20
2018-02-22T00:47:47.382Z,80.40
2018-02-22T00:50:15.857Z,80.70
2018-02-22T00:52:45.410Z,80.20
2018-02-22T00:55:13.467Z,80.20
2018-02-22T00:57:42.129Z,80.50
2018-02-22T01:00:10.200Z,80.70
2018-02-22T01:02:39.110Z,81.20
2018-02-22T01:05:08.178Z,81.30
2018-02-22T01:07:36.230Z,81.10
2018-02-22T01:10:05.079Z,79.90
2018-02-22T01:12:33.181Z,79.90
2018-02-22T01:15:01.245Z,80.00
2018-02-22T01:17:29.324Z,80.10
2018-02-22T01:19:57.458Z,80.80
2018-02-22T01:22:26.289Z,79.80
2018-02-22T01:24:54.403Z,79.70
2018-02-22T01:27:22.469Z,79.70
2018-02-22T01:29:50.536Z,79.70
2018-02-22T01:32:18.611Z,79.90
2018-02-22T01:34:47.194Z,80.10
2018-02-22T01:37:16.048Z,79.70
2018-02-22T01:39:44.116Z,79.70
2018-02-22T01:42:12.175Z,80.00
2018-02-22T01:44:40.306Z,80.80
2018-02-22T01:47:08.368Z,81.20
2018-02-22T01:49:36.434Z,80.60
2018-02-22T01:52:04.487Z,80.40
2018-02-22T01:54:32.861Z,80.80
2018-02-22T01:57:00.931Z,80.70
2018-02-22T01:59:28.994Z,80.80
2018-02-22T02:01:57.084Z,79.50
2018-02-22T02:04:25.142Z,79.30
2018-02-22T02:06:53.216Z,78.80
2018-02-22T02:09:22.038Z,78.10
2018-02-22T02:11:50.196Z,78.10
2018-02-22T02:14:19.020Z,78.20
2018-02-22T02:16:47.095Z,78.00
2018-02-22T02:19:15.996Z,77.80
2018-02-22T02:21:45.080Z,77.90
2018-02-22T02:24:13.141Z,77.90
2018-02-22T02:26:41.221Z,78.20
2018-02-22T02:29:09.336Z,78.90
2018-02-22T02:31:37.461Z,78.20
2018-02-22T02:34:06.280Z,77.90
2018-02-22T02:36:34.346Z,77.90
2018-02-22T02:39:02.455Z,77.80
2018-02-22T02:41:30.554Z,78.30
2018-02-22T02:43:58.592Z,79.00
2018-02-22T02:46:27.271Z,78.40
2018-02-22T02:48:55.328Z,78.60
2018-02-22T02:51:24.112Z,78.70
2018-02-22T02:53:52.180Z,79.00
2018-02-22T02:56:20.251Z,79.10
2018-02-22T02:58:48.317Z,79.40
2018-02-22T03:01:16.404Z,79.00
2018-02-22T03:03:44.474Z,79.30
2018-02-22T03:06:12.587Z,78.90
2018-02-22T03:08:40.662Z,79.10
2018-02-22T03:11:08.859Z,79.00
2018-02-22T03:13:36.910Z,78.80
2018-02-22T03:16:05.311Z,78.80
2018-02-22T03:18:33.362Z,78.90
2018-02-22T03:21:02.199Z,79.40
2018-02-22T03:23:31.288Z,79.30
2018-02-22T03:26:00.167Z,79.10
2018-02-22T03:28:28.999Z,79.60
2018-02-22T03:30:57.089Z,78.90
2018-02-22T03:33:25.171Z,79.30
2018-02-22T03:35:53.983Z,79.10
2018-02-22T03:38:22.059Z,79.20
2018-02-22T03:40:50.132Z,79.10
2018-02-22T03:43:18.946Z,79.20
2018-02-22T03:45:47.020Z,79.10
2018-02-22T03:48:15.120Z,80.00
2018-02-22T03:50:43.222Z,79.40
2018-02-22T03:53:11.287Z,79.20
2018-02-22T03:55:39.364Z,79.10
2018-02-22T03:58:07.697Z,79.30
2018-02-22T04:00:35.734Z,79.50
2018-02-22T04:03:04.622Z,79.60
2018-02-22T04:05:32.694Z,80.20
2018-02-22T04:08:01.530Z,80.10
2018-02-22T04:10:30.172Z,80.10
2018-02-22T04:12:58.243Z,80.20
2018-02-22T04:15:26.300Z,79.90
2018-02-22T04:17:54.499Z,79.90
2018-02-22T04:20:22.527Z,80.10
2018-02-22T04:22:50.648Z,80.10
2018-02-22T04:25:18.709Z,80.70
2018-02-22T04:27:47.212Z,80.30
2018-02-22T04:30:15.277Z,79.60
2018-02-22T04:32:45.044Z,79.60
2018-02-22T04:35:13.188Z,79.60
2018-02-22T04:37:41.276Z,79.80
2018-02-22T04:40:09.330Z,80.20
2018-02-22T04:42:38.199Z,79.60
2018-02-22T04:45:06.268Z,79.60
2018-02-22T04:47:34.354Z,80.30
2018-02-22T04:50:02.427Z,80.10
2018-02-22T04:52:30.497Z,80.50
2018-02-22T04:54:58.630Z,81.20
2018-02-22T04:57:26.705Z,80.70
2018-02-22T04:59:54.769Z,80.60
2018-02-22T05:02:22.839Z,80.60
2018-02-22T05:04:51.484Z,80.80
2018-02-22T05:07:19.574Z,81.00
2018-02-22T05:09:47.616Z,81.30
2018-02-22T05:12:15.685Z,80.90
2018-02-22T05:14:43.739Z,80.40
2018-02-22T05:17:12.588Z,79.60
2018-02-22T05:19:40.826Z,79.60
2018-02-22T05:22:09.679Z,79.50
2018-02-22T05:24:37.755Z,79.50
2018-02-22T05:27:06.667Z,79.50
2018-02-22T05:29:34.794Z,79.80
2018-02-22T05:32:03.558Z,79.60
2018-02-22T05:34:31.634Z,79.50
2018-02-22T05:36:59.737Z,79.50
2018-02-22T05:39:27.802Z,79.10
2018-02-22T05:41:55.856Z,79.20
2018-02-22T05:44:23.933Z,79.30
2018-02-22T05:46:51.996Z,79.20
2018-02-22T05:49:20.972Z,79.20
2018-02-22T05:51:49.055Z,79.00
2018-02-22T05:54:18.231Z,79.30
2018-02-22T05:56:47.281Z,79.50
2018-02-22T05:59:15.355Z,79.40
2018-02-22T06:01:44.290Z,79.80
2018-02-22T06:04:13.124Z,79.80
2018-02-22T06:06:41.199Z,79.80
2018-02-22T06:09:09.265Z,79.90
2018-02-22T06:11:38.109Z,79.00
2018-02-22T06:14:06.176Z,78.90
2018-02-22T06:16:34.228Z,78.70
2018-02-22T06:19:03.065Z,78.60
2018-02-22T06:21:31.137Z,78.50
2018-02-22T06:23:59.220Z,78.60
2018-02-22T06:26:27.296Z,78.60
2018-02-22T06:28:56.194Z,78.80
2018-02-22T06:31:25.073Z,79.00
2018-02-22T06:33:53.162Z,79.00
2018-02-22T06:36:21.212Z,78.50
2018-02-22T06:38:49.287Z,78.60
2018-02-22T06:41:17.338Z,78.10
2018-02-22T06:43:46.263Z,78.10
2018-02-22T06:46:14.332Z,77.80
2018-02-22T06:48:42.415Z,78.30
2018-02-22T06:51:10.503Z,78.00
2018-02-22T06:53:39.307Z,77.60
2018-02-22T06:56:07.376Z,77.60
2018-02-22T06:58:35.462Z,78.10
2018-02-22T07:01:03.534Z,79.10
2018-02-22T07:03:31.595Z,79.10
2018-02-22T07:05:59.679Z,78.70
2018-02-22T07:08:27.733Z,78.40
2018-02-22T07:10:55.894Z,78.10
2018-02-22T07:13:23.972Z,78.50
2018-02-22T07:15:52.023Z,78.50
2018-02-22T07:18:20.863Z,78.60
2018-02-22T07:20:48.928Z,78.50
2018-02-22T07:23:17.169Z,78.20
2018-02-22T07:25:45.062Z,78.60
2018-02-22T07:28:13.127Z,78.70
2018-02-22T07:30:41.206Z,78.90
2018-02-22T07:33:09.340Z,79.30
2018-02-22T07:35:38.169Z,79.90
2018-02-22T07:38:06.224Z,79.80
2018-02-22T07:40:34.474Z,79.00
2018-02-22T07:43:02.824Z,78.50
2018-02-22T07:45:31.644Z,77.40
2018-02-22T07:47:59.712Z,77.40
2018-02-22T07:50:27.995Z,77.30
2018-02-22T07:52:56.051Z,76.10
2018-02-22T07:55:24.144Z,76.50
2018-02-22T07:57:52.960Z,75.40
2018-02-22T08:00:21.032Z,75.30
2018-02-22T08:02:49.143Z,74.60
2018-02-22T08:05:17.215Z,73.20
2018-02-22T08:07:45.275Z,71.40
2018-02-22T08:10:14.120Z,72.50
2018-02-22T08:12:42.185Z,72.40
2018-02-22T08:15:10.259Z,73.20
2018-02-22T08:17:38.331Z,72.90
2018-02-22T08:20:06.398Z,71.90
2018-02-22T08:22:35.225Z,72.90
2018-02-22T08:25:03.305Z,72.80
2018-02-22T08:27:31.376Z,72.60
2018-02-22T08:30:00.223Z,72.00
2018-02-22T08:32:28.276Z,72.00
2018-02-22T08:34:56.360Z,71.00
2018-02-22T08:37:24.428Z,70.50
2018-02-22T08:39:53.268Z,70.60
2018-02-22T08:42:21.342Z,70.50
2018-02-22T08:44:49.396Z,71.70
2018-02-22T08:47:17.460Z,70.90
2018-02-22T08:49:46.300Z,70.70
2018-02-22T08:52:14.369Z,70.60
2018-02-22T08:54:42.435Z,70.40
2018-02-22T08:57:11.267Z,69.60
2018-02-22T08:59:39.344Z,69.50
2018-02-22T09:02:07.404Z,69.50
2018-02-22T09:04:36.228Z,69.90
2018-02-22T09:07:04.304Z,69.70
2018-02-22T09:09:32.361Z,69.80
2018-02-22T09:12:00.410Z,69.70
2018-02-22T09:14:28.467Z,69.10
2018-02-22T09:16:57.302Z,68.50
2018-02-22T09:19:25.377Z,68.50
2018-02-22T09:21:53.423Z,68.60
2018-02-22T09:24:21.503Z,68.30
2018-02-22T09:26:50.329Z,67.00
2018-02-22T09:29:18.391Z,67.00
2018-02-22T09:31:46.441Z,66.20
2018-02-22T09:34:14.491Z,66.60
2018-02-22T09:36:42.538Z,65.40
2018-02-22T09:39:10.584Z,64.70
2018-02-22T09:41:38.644Z,64.80
2018-02-22T09:44:06.701Z,64.00
2018-02-22T09:46:34.802Z,64.40
2018-02-22T09:49:02.810Z,63.80
2018-02-22T09:51:30.894Z,62.50
2018-02-22T09:53:58.946Z,61.60
2018-02-22T09:56:27.024Z,61.20
2018-02-22T09:58:55.086Z,59.90
2018-02-22T10:01:23.143Z,59.50
2018-02-22T10:03:51.203Z,59.50
2018-02-22T10:06:19.283Z,59.40
2018-02-22T10:08:47.334Z,58.90
2018-02-22T10:11:15.404Z,59.10
2018-02-22T10:13:43.447Z,58.90
2018-02-22T10:16:11.512Z,58.80
2018-02-22T10:18:39.567Z,57.70
2018-02-22T10:21:07.636Z,57.00
2018-02-22T10:23:35.696Z,57.00
2018-02-22T10:26:04.537Z,58.10
2018-02-22T10:28:32.578Z,58.10
2018-02-22T10:31:01.411Z,55.20
2018-02-22T10:33:29.474Z,55.10
2018-02-22T10:35:58.309Z,53.80
2018-02-22T10:38:26.351Z,53.70
2018-02-22T10:40:55.174Z,51.60
2018-02-22T10:43:23.258Z,51.60
2018-02-22T10:45:51.332Z,49.70
2018-02-22T10:48:20.153Z,48.90
2018-02-22T10:50:48.220Z,48.90
2018-02-22T10:53:16.271Z,49.50
2018-02-22T10:55:44.349Z,48.50
2018-02-22T10:58:12.394Z,49.10
2018-02-22T11:00:46.050Z,48.10
2018-02-22T11:03:14.116Z,47.80
2018-02-22T11:05:43.006Z,47.00
2018-02-22T11:08:11.060Z,46.90
2018-02-22T11:10:39.146Z,48.10
2018-02-22T11:13:07.201Z,47.70
2018-02-22T11:15:36.023Z,47.70
2018-02-22T11:18:04.071Z,47.60
2018-02-22T11:20:32.144Z,47.40
2018-02-22T11:23:00.198Z,46.70
2018-02-22T11:25:28.273Z,47.10
2018-02-22T11:27:56.401Z,47.40
2018-02-22T11:30:24.413Z,47.30
2018-02-22T11:32:53.234Z,45.30
2018-02-22T11:35:21.279Z,45.30
2018-02-22T11:37:49.344Z,44.20
2018-02-22T11:40:17.417Z,42.70
2018-02-22T11:42:45.476Z,43.30
2018-02-22T11:45:13.563Z,43.90
2018-02-22T11:47:41.623Z,44.40
2018-02-22T11:50:09.685Z,44.60
2018-02-22T11:52:37.747Z,43.00
2018-02-22T11:55:05.807Z,42.00
2018-02-22T11:57:33.870Z,39.80
2018-02-22T12:00:01.928Z,40.00
2018-02-22T12:02:30.859Z,41.00
2018-02-22T12:04:58.846Z,41.00
2018-02-22T12:07:26.916Z,41.50
2018-02-22T12:09:55.057Z,41.10
2018-02-22T12:12:23.133Z,40.60
2018-02-22T12:14:51.167Z,39.50
2018-02-22T12:17:19.452Z,40.10
2018-02-22T12:19:47.502Z,40.60
2018-02-22T12:22:15.562Z,40.80
2018-02-22T12:24:43.615Z,40.80
2018-02-22T12:27:11.710Z,39.60
2018-02-22T12:29:39.776Z,39.90
2018-02-22T12:32:07.842Z,40.80
2018-02-22T12:34:35.893Z,41.40
2018-02-22T12:37:04.576Z,40.80
2018-02-22T12:39:32.630Z,38.50
2018-02-22T12:42:00.696Z,37.80
2018-02-22T12:44:28.776Z,38.10
2018-02-22T12:46:56.831Z,38.30
2018-02-22T12:49:25.685Z,39.90
2018-02-22T12:51:53.706Z,39.40
2018-02-22T12:54:21.759Z,40.40
2018-02-22T12:56:49.832Z,41.80
2018-02-22T12:59:17.887Z,43.50
2018-02-22T13:01:45.954Z,43.80
2018-02-22T13:04:14.775Z,42.00
2018-02-22T13:06:42.847Z,42.00
2018-02-22T13:09:11.672Z,40.10
2018-02-22T13:11:39.741Z,40.10
2018-02-22T13:14:08.562Z,40.60
2018-02-22T13:16:36.632Z,40.60
2018-02-22T13:19:04.669Z,42.30
2018-02-22T13:21:32.755Z,41.60
2018-02-22T13:24:00.812Z,41.70
2018-02-22T13:26:28.963Z,41.70
2018-02-22T13:28:57.012Z,42.50
2018-02-22T13:31:25.088Z,43.60
2018-02-22T13:34:05.077Z,42.60
2018-02-22T13:36:33.928Z,42.70
2018-02-22T13:39:10.446Z,42.70
2018-02-22T13:41:38.512Z,43.10
2018-02-22T13:44:18.500Z,42.70
2018-02-22T13:46:47.427Z,43.10
2018-02-22T13:49:27.420Z,43.00
2018-02-22T13:51:55.482Z,42.50
2018-02-22T13:54:23.530Z,41.50
2018-02-22T13:57:04.133Z,41.40
2018-02-22T13:59:32.188Z,41.40
2018-02-22T14:02:12.156Z,42.30
2018-02-22T14:04:40.976Z,43.80
2018-02-22T14:07:09.808Z,43.80
2018-02-22T14:09:37.867Z,43.80
2018-02-22T14:12:05.946Z,44.20
2018-02-22T14:14:34.761Z,45.20
2018-02-22T14:17:02.836Z,45.10
2018-02-22T14:19:30.889Z,45.70
2018-02-22T14:21:58.959Z,46.10
2018-02-22T14:24:27.015Z,47.80
2018-02-22T14:26:55.285Z,48.20
2018-02-22T14:29:23.344Z,47.60
2018-02-22T14:31:52.158Z,48.70
2018-02-22T14:34:20.215Z,48.70
2018-02-22T14:36:49.044Z,49.40
2018-02-22T14:39:17.114Z,49.40
2018-02-22T14:41:46.059Z,49.80
2018-02-22T14:44:14.113Z,49.70
2018-02-22T14:46:42.167Z,49.50
2018-02-22T14:49:11.023Z,50.20
2018-02-22T14:51:39.071Z,50.20
2018-02-22T14:54:07.901Z,49.70
2018-02-22T14:56:35.991Z,49.70
2018-02-22T14:59:04.138Z,49.90
2018-02-22T15:01:32.958Z,49.50
2018-02-22T15:04:01.080Z,49.50
2018-02-22T15:06:29.134Z,49.40
2018-02-22T15:08:57.198Z,50.50
2018-02-22T15:11:25.250Z,50.10
2018-02-22T15:13:53.323Z,49.10
2018-02-22T15:16:21.383Z,49.80
2018-02-22T15:18:49.434Z,49.30
2018-02-22T15:21:17.492Z,50.00
2018-02-22T15:23:46.314Z,50.60
2018-02-22T15:26:14.380Z,50.60
2018-02-22T15:28:43.200Z,51.30
2018-02-22T15:31:11.264Z,50.90
2018-02-22T15:33:40.113Z,50.60
2018-02-22T15:36:08.147Z,50.60
2018-02-22T15:38:36.971Z,50.20
2018-02-22T15:41:05.024Z,50.10
2018-02-22T15:43:33.084Z,50.00
2018-02-22T15:46:01.184Z,50.70
2018-02-22T15:48:29.234Z,51.30
2018-02-22T15:50:57.295Z,51.10
2018-02-22T15:53:25.370Z,51.30
2018-02-22T15:55:53.425Z,52.00
2018-02-22T15:58:21.466Z,51.70
2018-02-22T16:00:49.519Z,52.30
2018-02-22T16:03:17.592Z,51.50
2018-02-22T16:05:45.640Z,51.70
2018-02-22T16:08:13.695Z,52.80
2018-02-22T16:10:41.756Z,53.20
2018-02-22T16:13:09.835Z,52.60
2018-02-22T16:15:37.881Z,52.40
2018-02-22T16:18:05.967Z,51.70
2018-02-22T16:20:34.816Z,52.40
2018-02-22T16:23:03.264Z,52.40
2018-02-22T16:25:31.317Z,52.00
2018-02-22T16:27:59.370Z,52.20
2018-02-22T16:30:27.444Z,52.80
2018-02-22T16:32:55.518Z,51.70
2018-02-22T16:35:23.578Z,51.20
2018-02-22T16:37:51.631Z,52.50
2018-02-22T16:40:19.699Z,52.70
2018-02-22T16:42:47.754Z,52.60
2018-02-22T16:45:15.812Z,52.60
2018-02-22T16:47:44.658Z,52.10
2018-02-22T16:50:12.728Z,52.50
2018-02-22T16:52:41.382Z,52.40
2018-02-22T16:55:09.457Z,52.50
2018-02-22T16:57:37.591Z,52.70
2018-02-22T17:00:05.652Z,53.40
2018-02-22T17:02:34.470Z,53.00
2018-02-22T17:05:02.597Z,53.00
2018-02-22T17:07:31.784Z,52.50
2018-02-22T17:10:00.630Z,53.40
2018-02-22T17:12:28.680Z,53.40
2018-02-22T17:14:56.748Z,53.50
2018-02-22T17:20:25.164Z,53.30
2018-02-22T17:22:53.223Z,53.00
2018-02-22T17:25:21.550Z,53.80
2018-02-22T17:27:55.332Z,53.80
2018-02-22T17:30:29.824Z,54.30
2018-02-22T17:32:57.890Z,54.30
2018-02-22T17:35:41.704Z,53.60
2018-02-22T17:38:12.448Z,54.60
2018-02-22T17:40:45.712Z,55.00
2018-02-22T17:43:13.800Z,54.90
2018-02-22T17:45:41.872Z,54.70
2018-02-22T17:48:09.926Z,54.50
2018-02-22T17:50:37.969Z,55.10
2018-02-22T17:53:06.999Z,54.50
2018-02-22T17:55:35.822Z,55.00
2018-02-22T17:58:03.866Z,55.00
2018-02-22T18:00:31.939Z,54.60
2018-02-22T18:02:59.988Z,55.00
2018-02-22T18:05:28.073Z,55.00
2018-02-22T18:07:56.129Z,54.40
2018-02-22T18:10:24.211Z,55.30
2018-02-22T18:12:52.258Z,54.90
2018-02-22T18:15:20.328Z,55.00
2018-02-22T18:17:48.572Z,54.80
2018-02-22T18:20:16.648Z,55.00
2018-02-22T18:22:45.519Z,56.10
2018-02-22T18:25:13.587Z,55.60
2018-02-22T18:27:41.648Z,55.20
2018-02-22T18:30:09.707Z,54.80
2018-02-22T18:32:37.763Z,55.20
2018-02-22T18:35:06.587Z,55.60
2018-02-22T18:37:40.291Z,55.70
2018-02-22T18:40:13.930Z,56.10
2018-02-22T18:42:47.802Z,55.20
2018-02-22T18:45:15.891Z,55.60
2018-02-22T18:47:44.009Z,55.30
2018-02-22T18:50:12.100Z,55.20
2018-02-22T18:52:40.144Z,55.70
2018-02-22T18:55:08.217Z,55.20
2018-02-22T18:57:36.276Z,55.30
2018-02-22T19:00:04.351Z,55.30
2018-02-22T19:02:32.403Z,55.90
2018-02-22T19:05:00.589Z,55.80
2018-02-22T19:07:28.639Z,56.10
2018-02-22T19:09:56.708Z,56.00
2018-02-22T19:12:25.359Z,56.10
2018-02-22T19:14:53.423Z,55.90
2018-02-22T19:17:22.337Z,55.70
2018-02-22T19:19:50.345Z,55.60
2018-02-22T19:22:18.416Z,56.00
2018-02-22T19:24:46.454Z,55.80
2018-02-22T19:27:14.518Z,56.00
2018-02-22T19:29:42.584Z,55.80
2018-02-22T19:32:10.655Z,56.00
2018-02-22T19:34:38.712Z,55.50
2018-02-22T19:37:07.568Z,55.00
2018-02-22T19:39:35.616Z,55.00
2018-02-22T19:42:03.688Z,55.10
2018-02-22T19:44:31.731Z,55.10
2018-02-22T19:46:59.787Z,55.90
2018-02-22T19:49:27.855Z,55.20
2018-02-22T19:51:55.996Z,55.30
2018-02-22T19:54:24.052Z,55.90
2018-02-22T19:56:52.107Z,55.70
2018-02-22T19:59:20.351Z,55.80
2018-02-22T20:01:48.408Z,56.30
2018-02-22T20:04:16.452Z,56.40
2018-02-22T20:06:44.525Z,55.80
2018-02-22T20:09:12.566Z,55.90
2018-02-22T20:11:40.629Z,55.80
2018-02-22T20:14:08.690Z,56.60
2018-02-22T20:16:36.791Z,56.20
2018-02-22T20:19:04.850Z,56.60
2018-02-22T20:21:32.924Z,56.70
2018-02-22T20:24:00.989Z,56.50
2018-02-22T20:26:29.058Z,56.80
2018-02-22T20:28:57.125Z,56.60
2018-02-22T20:31:25.223Z,56.80
2018-02-22T20:33:53.267Z,56.40
2018-02-22T20:36:21.355Z,57.00
2018-02-22T20:38:49.391Z,56.90
2018-02-22T20:41:18.236Z,57.30
2018-02-22T20:43:46.290Z,57.30
2018-02-22T20:46:14.342Z,57.40
2018-02-22T20:48:42.438Z,57.50
2018-02-22T20:51:13.233Z,58.50
2018-02-22T20:53:43.214Z,58.20
2018-02-22T20:56:12.047Z,57.90
2018-02-22T20:58:40.087Z,57.80
2018-02-22T21:01:08.159Z,57.60
2018-02-22T21:03:36.794Z,57.30
2018-02-22T21:06:05.612Z,57.70
2018-02-22T21:08:33.680Z,57.70
2018-02-22T21:11:01.732Z,58.40
2018-02-22T21:13:29.796Z,58.00
2018-02-22T21:15:57.870Z,58.00
2018-02-22T21:18:25.928Z,58.10
2018-02-22T21:20:53.994Z,58.40
2018-02-22T21:23:23.680Z,58.70
2018-02-22T21:25:51.768Z,58.10
2018-02-22T21:28:19.824Z,58.00
2018-02-22T21:30:48.709Z,58.10
2018-02-22T21:33:16.778Z,58.40
2018-02-22T21:35:44.881Z,58.50
2018-02-22T21:38:12.953Z,59.60
2018-02-22T21:40:40.995Z,59.90
2018-02-22T21:43:09.271Z,58.50
2018-02-22T21:45:37.354Z,59.00
2018-02-22T21:48:05.481Z,58.60
2018-02-22T21:50:33.620Z,58.60
2018-02-22T21:53:01.727Z,58.80
2018-02-22T21:55:29.845Z,58.70
2018-02-22T21:57:57.898Z,58.70
2018-02-22T22:00:26.799Z,59.40
2018-02-22T22:02:55.669Z,59.00
2018-02-22T22:05:23.734Z,59.00
2018-02-22T22:07:51.889Z,58.60
2018-02-22T22:10:19.959Z,59.30
2018-02-22T22:12:48.026Z,59.80
2018-02-22T22:15:16.078Z,59.70
2018-02-22T22:17:44.130Z,58.40
2018-02-22T22:20:12.304Z,58.80
2018-02-22T22:22:41.127Z,58.60
2018-02-22T22:25:09.203Z,58.50
2018-02-22T22:27:37.361Z,59.00
2018-02-22T22:30:06.168Z,59.60
2018-02-22T22:32:34.994Z,59.80
2018-02-22T22:35:03.069Z,59.80
2018-02-22T22:37:31.143Z,58.50
2018-02-22T22:39:59.763Z,59.40
2018-02-22T22:42:27.840Z,59.00
2018-02-22T22:44:55.891Z,58.70
2018-02-22T22:47:24.764Z,59.40
2018-02-22T22:49:52.822Z,59.90
2018-02-22T22:52:20.900Z,59.70
2018-02-22T22:54:49.051Z,59.40
2018-02-22T22:57:17.934Z,59.10
2018-02-22T22:59:45.987Z,59.50
2018-02-22T23:02:14.134Z,59.80
2018-02-22T23:04:42.146Z,59.70
2018-02-22T23:07:11.258Z,59.80
2018-02-22T23:09:39.890Z,59.90
2018-02-22T23:12:07.970Z,59.90
2018-02-22T23:14:36.824Z,60.10
2018-02-22T23:17:04.888Z,60.10
2018-02-22T23:19:32.938Z,59.90
2018-02-22T23:22:01.688Z,60.20
2018-02-22T23:24:29.820Z,60.50
2018-02-22T23:26:57.865Z,59.80
2018-02-22T23:29:26.763Z,60.90
2018-02-22T23:31:54.825Z,61.00
2018-02-22T23:34:22.891Z,60.90
2018-02-22T23:36:51.776Z,60.10
2018-02-22T23:39:19.834Z,60.10
2018-02-22T23:41:54.879Z,59.70
2018-02-22T23:44:22.963Z,60.20
2018-02-22T23:46:51.040Z,59.60
2018-02-22T23:49:19.113Z,60.00
2018-02-22T23:51:48.033Z,60.20
2018-02-22T23:54:16.312Z,60.30
2018-02-22T23:56:44.415Z,60.20
2018-02-22T23:59:12.522Z,59.70
